Ana Sayfa
METAR-TAF:

METAR-TAF

Havaalanları :

Adnan Menderes Havalimanı

İzmir, Türkiye

Enlem: 38-16N, Boylam: 027-09E, yükseklik: 125 m

Güncel hava durumu gözlemi

Rapor saat 11:20 UTC de 24 dakika önce yapıldı.
Rüzgar kuzeydan 21 kt
Sıcaklık 17°C
Nem 45%
Basınç 1020 hPa
Görüş mesafesi 10 km veya daha fazla
1500 m altında bulut yok ve kümülonimbus yok

METAR: LTBJ 211120Z 36021KT CAVOK 17/05 Q1020 NOSIG RMK RWY16 34020KT

Saat: 14:44 (11:44 UTC)

Tahmin

Rapor saat 10:40 UTC de 1 saat ve 4 dakika önce yapıldı.
Ayın 21'si saat 12 UTC'den ayın 22'si saat 12 UTC'ye kadar geçerli Tahmin
Rüzgar kuzeydan 18 kt ve 30 kt'a kadar ani rüzgarlar
Görüş mesafesi 10 km veya daha fazla
1500 m altında bulut yok ve kümülonimbus yok

TAF: LTBJ 211040Z 2112/2212 36018G30KT CAVOK

4.000'den fazla havaalanı için hava durumu gözlemleri ve tahminleri (METAR ve TAF raporları).

Kullanılabilir istasyonlar harita üzerinde sarı ve kırmızı noktalarla gösterilir.

İstasyonun adını görmek için fareyi noktanın üzerinde gezdirin.

Sonrasında hava gözlem ve tahminlerini görmek için tıklayın.

Haritayı değiştirmek için: yaklaştırmak için siyah artı işaretli yeşil düğmeye ve uzaklaştırmak için de eksi işaretli düğmeye hızla tıklayın; bitişik haritalar için yeşil okları kullanın.


METAR-TAF: